createdAt,value
2018-06-08T00:01:16.134Z,19.10
2018-06-08T00:03:43.648Z,19.00
2018-06-08T00:06:11.173Z,19.00
2018-06-08T00:08:38.724Z,19.00
2018-06-08T00:11:06.265Z,19.00
2018-06-08T00:13:33.756Z,19.00
2018-06-08T00:18:28.718Z,19.10
2018-06-08T00:20:56.253Z,19.10
2018-06-08T00:23:23.777Z,19.00
2018-06-08T00:25:51.351Z,19.00
2018-06-08T00:28:18.847Z,19.00
2018-06-08T00:30:46.960Z,19.00
2018-06-08T00:33:14.649Z,19.10
2018-06-08T00:35:42.181Z,19.10
2018-06-08T00:38:09.681Z,19.10
2018-06-08T00:40:43.960Z,19.10
2018-06-08T00:43:11.453Z,19.10
2018-06-08T00:45:38.976Z,19.10
2018-06-08T00:50:34.013Z,19.00
2018-06-08T00:53:01.686Z,19.00
2018-06-08T00:55:29.193Z,19.10
2018-06-08T00:57:56.717Z,19.00
2018-06-08T01:00:24.233Z,19.00
2018-06-08T01:02:51.760Z,19.10
2018-06-08T01:05:19.304Z,19.00
2018-06-08T01:07:46.801Z,19.00
2018-06-08T01:10:14.324Z,19.00
2018-06-08T01:12:41.828Z,19.00
2018-06-08T01:15:09.375Z,19.00
2018-06-08T01:20:04.433Z,19.00
2018-06-08T01:22:31.981Z,19.00
2018-06-08T01:24:59.473Z,18.90
2018-06-08T01:27:27.002Z,18.90
2018-06-08T01:29:54.507Z,18.90
2018-06-08T01:32:22.013Z,18.90
2018-06-08T01:34:49.537Z,18.80
2018-06-08T01:37:17.032Z,18.90
2018-06-08T01:39:44.560Z,18.80
2018-06-08T01:44:39.565Z,18.80
2018-06-08T01:47:07.080Z,18.80
2018-06-08T01:49:34.593Z,18.80
2018-06-08T01:52:02.121Z,18.80
2018-06-08T01:54:29.618Z,18.80
2018-06-08T01:56:57.131Z,18.80
2018-06-08T01:59:24.637Z,18.90
2018-06-08T02:01:52.172Z,18.90
2018-06-08T02:04:19.665Z,18.80
2018-06-08T02:06:47.226Z,18.80
2018-06-08T02:09:14.786Z,18.90
2018-06-08T02:11:42.341Z,18.90
2018-06-08T02:14:09.890Z,18.90
2018-06-08T02:16:37.421Z,18.90
2018-06-08T02:21:32.546Z,18.80
2018-06-08T02:26:27.465Z,18.80
2018-06-08T02:28:54.986Z,18.80
2018-06-08T02:31:22.508Z,18.80
2018-06-08T02:33:50.005Z,18.90
2018-06-08T02:36:17.553Z,18.80
2018-06-08T02:38:45.083Z,18.80
2018-06-08T02:41:12.608Z,18.80
2018-06-08T02:43:40.106Z,18.80
2018-06-08T02:46:07.725Z,18.80
2018-06-08T02:51:02.725Z,18.80
2018-06-08T02:53:30.226Z,18.70
2018-06-08T02:55:57.770Z,18.70
2018-06-08T02:58:25.291Z,18.70
2018-06-08T03:00:52.835Z,18.70
2018-06-08T03:03:20.367Z,18.70
2018-06-08T03:05:47.927Z,18.80
2018-06-08T03:08:15.430Z,18.80
2018-06-08T03:10:43.006Z,18.80
2018-06-08T03:13:10.537Z,18.90
2018-06-08T03:15:38.029Z,18.90
2018-06-08T03:18:05.624Z,18.90
2018-06-08T03:20:33.130Z,18.90
2018-06-08T03:23:00.641Z,18.90
2018-06-08T03:25:28.150Z,18.90
2018-06-08T03:27:55.661Z,18.90
2018-06-08T03:30:23.361Z,18.90
2018-06-08T03:32:50.905Z,18.90
2018-06-08T03:35:18.420Z,18.90
2018-06-08T03:37:45.935Z,18.90
2018-06-08T03:40:13.480Z,18.90
2018-06-08T03:42:40.997Z,18.90
2018-06-08T03:45:08.501Z,19.00
2018-06-08T03:47:36.050Z,19.00
2018-06-08T03:50:03.644Z,19.00
2018-06-08T03:52:31.162Z,19.00
2018-06-08T03:54:58.669Z,19.00
2018-06-08T03:57:26.194Z,19.10
2018-06-08T03:59:53.718Z,19.10
2018-06-08T04:02:21.320Z,19.10
2018-06-08T04:04:48.807Z,19.10
2018-06-08T04:07:16.349Z,19.10
2018-06-08T04:09:43.862Z,19.10
2018-06-08T04:12:11.377Z,19.20
2018-06-08T04:14:38.890Z,19.20
2018-06-08T04:17:06.420Z,19.20
2018-06-08T04:19:33.911Z,19.20
2018-06-08T04:22:01.467Z,19.20
2018-06-08T04:24:28.956Z,19.30
2018-06-08T04:26:56.545Z,19.30
2018-06-08T04:29:24.069Z,19.30
2018-06-08T04:31:51.604Z,19.30
2018-06-08T04:34:19.100Z,19.30
2018-06-08T04:36:47.142Z,19.30
2018-06-08T04:39:14.637Z,19.30
2018-06-08T04:41:42.181Z,19.30
2018-06-08T04:46:37.144Z,19.30
2018-06-08T04:49:04.701Z,19.40
2018-06-08T04:51:32.265Z,19.40
2018-06-08T04:53:59.776Z,19.40
2018-06-08T04:56:27.301Z,19.50
2018-06-08T04:58:54.868Z,19.50
2018-06-08T05:01:22.393Z,19.50
2018-06-08T05:03:49.939Z,19.60
2018-06-08T05:06:17.453Z,19.70
2018-06-08T05:08:45.009Z,19.60
2018-06-08T05:11:12.585Z,19.70
2018-06-08T05:13:40.126Z,19.80
2018-06-08T05:16:07.624Z,19.80
2018-06-08T05:18:35.170Z,19.80
2018-06-08T05:21:02.726Z,19.90
2018-06-08T05:23:30.265Z,19.90
2018-06-08T05:25:57.769Z,19.90
2018-06-08T05:28:25.431Z,19.90
2018-06-08T05:30:52.961Z,20.00
2018-06-08T05:33:20.500Z,20.00
2018-06-08T05:35:48.004Z,20.00
2018-06-08T05:38:15.686Z,20.00
2018-06-08T05:40:43.210Z,20.00
2018-06-08T05:43:10.738Z,20.00
2018-06-08T05:48:05.831Z,20.10
2018-06-08T05:50:33.379Z,20.10
2018-06-08T05:53:01.120Z,20.10
2018-06-08T05:55:28.636Z,20.10
2018-06-08T06:00:23.659Z,20.20
2018-06-08T06:05:18.642Z,20.10
2018-06-08T06:07:46.173Z,20.00
2018-06-08T06:10:13.712Z,20.20
2018-06-08T06:12:41.232Z,20.20
2018-06-08T06:15:08.728Z,20.20
2018-06-08T06:17:36.289Z,20.30
2018-06-08T06:20:04.766Z,20.30
2018-06-08T06:22:32.271Z,20.30
2018-06-08T06:24:59.812Z,20.30
2018-06-08T06:27:27.341Z,20.40
2018-06-08T06:29:54.874Z,20.40
2018-06-08T06:32:22.380Z,20.50
2018-06-08T06:34:56.022Z,20.60
2018-06-08T06:37:23.533Z,20.60
2018-06-08T06:39:51.078Z,20.50
2018-06-08T06:42:18.602Z,20.60
2018-06-08T06:44:46.112Z,20.70
2018-06-08T06:47:13.614Z,20.70
2018-06-08T06:49:41.306Z,20.80
2018-06-08T06:52:09.197Z,20.80
2018-06-08T06:54:36.742Z,20.90
2018-06-08T06:57:04.326Z,21.00
2018-06-08T06:59:31.873Z,21.10
2018-06-08T07:01:59.379Z,21.20
2018-06-08T07:04:26.991Z,21.30
2018-06-08T07:06:54.510Z,21.30
2018-06-08T07:09:22.033Z,21.50
2018-06-08T07:11:49.552Z,21.50
2018-06-08T07:14:17.074Z,21.70
2018-06-08T07:16:44.582Z,21.70
2018-06-08T07:19:12.122Z,21.80
2018-06-08T07:21:39.661Z,21.80
2018-06-08T07:24:07.257Z,21.80
2018-06-08T07:26:34.785Z,21.80
2018-06-08T07:29:02.298Z,22.00
2018-06-08T07:31:29.879Z,21.90
2018-06-08T07:33:57.409Z,22.10
2018-06-08T07:36:24.952Z,22.20
2018-06-08T07:38:53.145Z,22.20
2018-06-08T07:41:20.689Z,22.00
2018-06-08T07:43:48.577Z,21.90
2018-06-08T07:46:16.341Z,21.80
2018-06-08T07:48:44.565Z,21.80
2018-06-08T07:51:12.573Z,21.90
2018-06-08T07:53:40.812Z,22.00
2018-06-08T07:56:08.324Z,22.00
2018-06-08T07:58:35.873Z,22.20
2018-06-08T08:01:03.425Z,22.10
2018-06-08T08:03:30.949Z,22.20
2018-06-08T08:05:58.506Z,22.00
2018-06-08T08:08:26.065Z,22.00
2018-06-08T08:10:53.677Z,22.10
2018-06-08T08:13:21.237Z,22.10
2018-06-08T08:15:48.773Z,22.20
2018-06-08T08:18:16.328Z,22.30
2018-06-08T08:20:43.863Z,22.30
2018-06-08T08:23:11.367Z,22.30
2018-06-08T08:25:38.919Z,22.20
2018-06-08T08:28:06.456Z,22.10
2018-06-08T08:30:40.616Z,22.00
2018-06-08T08:33:08.211Z,21.90
2018-06-08T08:35:35.760Z,21.80
2018-06-08T08:38:03.328Z,21.70
2018-06-08T08:40:30.890Z,21.50
2018-06-08T08:42:58.613Z,21.30
2018-06-08T08:45:27.181Z,21.10
2018-06-08T08:47:54.693Z,21.10
2018-06-08T08:50:22.252Z,21.00
2018-06-08T08:52:49.778Z,21.10
2018-06-08T08:55:17.310Z,21.10
2018-06-08T08:57:44.834Z,21.10
2018-06-08T09:00:12.382Z,21.10
2018-06-08T09:02:39.949Z,21.10
2018-06-08T09:05:07.580Z,21.00
2018-06-08T09:07:35.093Z,21.00
2018-06-08T09:10:02.673Z,20.90
2018-06-08T09:12:30.212Z,20.80
2018-06-08T09:14:57.817Z,20.70
2018-06-08T09:17:25.415Z,20.50
2018-06-08T09:19:52.966Z,20.00
2018-06-08T09:22:20.494Z,19.60
2018-06-08T09:24:48.069Z,19.50
2018-06-08T09:27:15.637Z,19.40
2018-06-08T09:29:43.173Z,19.40
2018-06-08T09:32:10.697Z,19.50
2018-06-08T09:34:38.200Z,19.70
2018-06-08T09:37:05.809Z,19.90
2018-06-08T09:39:33.295Z,20.10
2018-06-08T09:44:28.513Z,20.50
2018-06-08T09:46:56.168Z,20.60
2018-06-08T09:49:23.680Z,20.70
2018-06-08T09:51:51.216Z,20.80
2018-06-08T09:54:18.718Z,20.80
2018-06-08T09:56:46.254Z,20.70
2018-06-08T09:59:13.781Z,20.70
2018-06-08T10:01:41.405Z,20.60
2018-06-08T10:04:08.909Z,20.50
2018-06-08T10:06:36.433Z,20.50
2018-06-08T10:09:06.556Z,20.50
2018-06-08T10:11:34.087Z,20.60
2018-06-08T10:14:01.600Z,20.70
2018-06-08T10:16:29.209Z,20.60
2018-06-08T10:18:56.720Z,20.60
2018-06-08T10:21:24.314Z,20.60
2018-06-08T10:23:52.044Z,20.60
2018-06-08T10:26:19.565Z,20.60
2018-06-08T10:28:47.661Z,20.60
2018-06-08T10:31:15.187Z,20.50
2018-06-08T10:33:42.696Z,20.50
2018-06-08T10:36:10.268Z,20.40
2018-06-08T10:38:37.808Z,20.30
2018-06-08T10:41:05.389Z,20.10
2018-06-08T10:43:33.152Z,20.10
2018-06-08T10:46:00.655Z,20.00
2018-06-08T10:48:28.277Z,19.90
2018-06-08T10:50:55.826Z,19.80
2018-06-08T10:53:23.436Z,19.70
2018-06-08T10:55:50.949Z,19.60
2018-06-08T10:58:18.474Z,19.60
2018-06-08T11:00:45.976Z,19.50
2018-06-08T11:03:13.525Z,19.60
2018-06-08T11:05:41.060Z,19.50
2018-06-08T11:08:08.619Z,19.50
2018-06-08T11:10:36.144Z,19.50
2018-06-08T11:13:03.701Z,19.40
2018-06-08T11:15:31.226Z,19.40
2018-06-08T11:17:58.749Z,19.30
2018-06-08T11:20:26.263Z,19.30
2018-06-08T11:22:53.802Z,19.30
2018-06-08T11:25:21.295Z,19.40
2018-06-08T11:32:43.720Z,19.60
2018-06-08T11:35:11.254Z,19.70
2018-06-08T11:37:38.780Z,19.80
2018-06-08T11:40:06.489Z,19.90
2018-06-08T11:42:34.001Z,20.00
2018-06-08T11:45:01.538Z,20.20
2018-06-08T11:47:29.061Z,20.30
2018-06-08T11:49:56.620Z,20.50
2018-06-08T11:52:24.137Z,20.50
2018-06-08T11:54:51.667Z,20.60
2018-06-08T11:57:19.229Z,20.80
2018-06-08T11:59:46.760Z,21.00
2018-06-08T12:02:14.273Z,21.30
2018-06-08T12:04:41.801Z,21.40
2018-06-08T12:07:09.315Z,21.50
2018-06-08T12:09:36.860Z,21.80
2018-06-08T12:12:04.516Z,22.00
2018-06-08T12:14:32.052Z,22.30
2018-06-08T12:16:59.621Z,22.50
2018-06-08T12:19:27.107Z,22.70
2018-06-08T12:21:54.701Z,23.00
2018-06-08T12:24:22.206Z,22.90
2018-06-08T12:26:49.979Z,22.90
2018-06-08T12:29:17.351Z,23.00
2018-06-08T12:31:44.968Z,22.90
2018-06-08T12:34:12.545Z,22.80
2018-06-08T12:36:40.069Z,22.80
2018-06-08T12:39:07.724Z,22.70
2018-06-08T12:41:35.564Z,22.70
2018-06-08T12:44:03.109Z,22.60
2018-06-08T12:46:30.706Z,22.50
2018-06-08T12:48:58.244Z,22.40
2018-06-08T12:51:25.821Z,22.30
2018-06-08T12:53:53.389Z,22.20
2018-06-08T12:56:20.922Z,22.30
2018-06-08T12:58:48.438Z,22.40
2018-06-08T13:01:16.046Z,22.80
2018-06-08T13:03:43.613Z,22.90
2018-06-08T13:06:11.162Z,23.00
2018-06-08T13:08:38.685Z,23.20
2018-06-08T13:11:06.301Z,23.30
2018-06-08T13:13:33.872Z,23.50
2018-06-08T13:16:01.502Z,23.60
2018-06-08T13:18:33.604Z,23.60
2018-06-08T13:21:02.938Z,23.40
2018-06-08T13:23:30.532Z,23.40
2018-06-08T13:25:58.186Z,23.50
2018-06-08T13:28:25.732Z,23.50
2018-06-08T13:30:53.265Z,23.40
2018-06-08T13:33:20.825Z,23.30
2018-06-08T13:35:48.349Z,23.40
2018-06-08T13:38:15.877Z,23.40
2018-06-08T13:40:43.412Z,23.60
2018-06-08T13:43:11.073Z,23.60
2018-06-08T13:45:38.627Z,23.50
2018-06-08T13:48:06.184Z,23.40
2018-06-08T13:50:33.765Z,23.60
2018-06-08T13:53:01.379Z,23.70
2018-06-08T13:55:28.913Z,23.70
2018-06-08T13:57:56.452Z,23.70
2018-06-08T14:00:23.969Z,23.70
2018-06-08T14:02:51.471Z,23.70
2018-06-08T14:05:19.002Z,23.70
2018-06-08T14:07:46.531Z,24.00
2018-06-08T14:10:14.044Z,24.10
2018-06-08T14:12:41.601Z,24.20
2018-06-08T14:15:09.137Z,24.10
2018-06-08T14:17:36.673Z,24.00
2018-06-08T14:20:04.300Z,24.20
2018-06-08T14:22:31.874Z,24.40
2018-06-08T14:24:59.397Z,24.60
2018-06-08T14:27:26.940Z,24.80
2018-06-08T14:29:54.467Z,25.00
2018-06-08T14:32:22.045Z,25.40
2018-06-08T14:34:49.600Z,25.60
2018-06-08T14:37:17.094Z,25.80
2018-06-08T14:39:44.978Z,25.80
2018-06-08T14:42:12.515Z,25.70
2018-06-08T14:44:40.085Z,25.60
2018-06-08T14:47:07.671Z,25.40
2018-06-08T14:49:35.301Z,25.30
2018-06-08T14:52:02.914Z,25.40
2018-06-08T14:54:30.496Z,25.40
2018-06-08T14:56:58.054Z,25.70
2018-06-08T14:59:25.753Z,25.90
2018-06-08T15:01:53.276Z,26.00
2018-06-08T15:04:27.442Z,26.20
2018-06-08T15:06:54.973Z,26.20
2018-06-08T15:09:22.514Z,26.60
2018-06-08T15:11:50.076Z,26.70
2018-06-08T15:14:17.582Z,26.90
2018-06-08T15:16:46.150Z,26.80
2018-06-08T15:19:13.669Z,26.90
2018-06-08T15:21:41.346Z,26.80
2018-06-08T15:24:08.836Z,26.70
2018-06-08T15:26:36.357Z,26.60
2018-06-08T15:29:03.992Z,26.40
2018-06-08T15:31:31.517Z,26.70
2018-06-08T15:33:59.080Z,27.20
2018-06-08T15:38:54.163Z,28.20
2018-06-08T15:41:21.717Z,28.50
2018-06-08T15:43:49.232Z,28.80
2018-06-08T15:46:16.742Z,28.80
2018-06-08T15:48:44.285Z,28.60
2018-06-08T15:51:11.824Z,28.80
2018-06-08T15:53:39.361Z,29.50
2018-06-08T15:56:06.971Z,30.10
2018-06-08T15:58:34.529Z,30.30
2018-06-08T16:01:02.085Z,30.90
2018-06-08T16:03:29.622Z,30.90
2018-06-08T16:05:57.158Z,31.20
2018-06-08T16:08:24.681Z,31.30
2018-06-08T16:10:52.196Z,31.40
2018-06-08T16:13:20.137Z,31.20
2018-06-08T16:18:16.217Z,30.80
2018-06-08T16:20:43.764Z,30.30
2018-06-08T16:23:11.297Z,30.10
2018-06-08T16:25:38.817Z,30.10
2018-06-08T16:28:06.410Z,29.90
2018-06-08T16:33:01.701Z,29.60
2018-06-08T16:35:29.281Z,29.40
2018-06-08T16:37:57.110Z,29.70
2018-06-08T16:40:24.724Z,29.90
2018-06-08T16:42:52.269Z,30.30
2018-06-08T16:45:19.833Z,30.60
2018-06-08T16:50:14.813Z,29.80
2018-06-08T16:52:42.344Z,29.50
2018-06-08T16:55:09.894Z,29.70
2018-06-08T16:57:37.473Z,29.80
2018-06-08T17:00:06.471Z,29.90
2018-06-08T17:02:33.977Z,30.00
2018-06-08T17:05:02.649Z,30.50
2018-06-08T17:09:57.717Z,30.10
2018-06-08T17:12:25.271Z,29.90
2018-06-08T17:14:52.847Z,29.90
2018-06-08T17:17:20.999Z,29.90
2018-06-08T17:19:48.622Z,29.50
2018-06-08T17:24:43.613Z,28.70
2018-06-08T17:27:15.270Z,28.10
2018-06-08T17:29:42.837Z,28.20
2018-06-08T17:32:10.604Z,28.30
2018-06-08T17:34:38.128Z,28.20
2018-06-08T17:37:05.861Z,27.70
2018-06-08T17:39:33.452Z,27.50
2018-06-08T17:42:01.023Z,26.90
2018-06-08T17:44:28.585Z,26.70
2018-06-08T17:46:56.113Z,26.80
2018-06-08T17:49:23.672Z,26.80
2018-06-08T17:51:51.253Z,26.60
2018-06-08T17:54:18.775Z,26.40
2018-06-08T17:56:46.332Z,26.10
2018-06-08T17:59:13.888Z,25.90
2018-06-08T18:01:41.416Z,25.60
2018-06-08T18:06:36.418Z,25.20
2018-06-08T18:09:06.077Z,24.90
2018-06-08T18:11:33.689Z,24.80
2018-06-08T18:16:28.794Z,24.60
2018-06-08T18:18:56.382Z,24.40
2018-06-08T18:21:23.952Z,24.20
2018-06-08T18:23:51.734Z,24.30
2018-06-08T18:26:19.292Z,24.30
2018-06-08T18:28:46.882Z,24.30
2018-06-08T18:31:14.393Z,24.20
2018-06-08T18:33:41.915Z,24.10
2018-06-08T18:36:09.470Z,24.10
2018-06-08T18:38:36.994Z,24.00
2018-06-08T18:41:04.578Z,23.90
2018-06-08T18:43:32.269Z,23.70
2018-06-08T18:45:59.796Z,23.70
2018-06-08T18:48:27.463Z,23.60
2018-06-08T18:50:55.005Z,23.50
2018-06-08T18:53:22.541Z,23.30
2018-06-08T18:55:50.067Z,23.30
2018-06-08T18:58:17.630Z,23.20
2018-06-08T19:00:45.223Z,23.10
2018-06-08T19:03:19.469Z,23.10
2018-06-08T19:05:47.120Z,22.90
2018-06-08T19:08:14.644Z,22.80
2018-06-08T19:10:42.176Z,22.80
2018-06-08T19:13:09.760Z,22.70
2018-06-08T19:15:37.274Z,22.60
2018-06-08T19:18:04.801Z,22.50
2018-06-08T19:20:32.317Z,22.50
2018-06-08T19:22:59.837Z,22.30
2018-06-08T19:25:27.397Z,22.30
2018-06-08T19:27:55.130Z,22.20
2018-06-08T19:30:22.657Z,22.10
2018-06-08T19:32:50.181Z,22.10
2018-06-08T19:35:17.716Z,22.00
2018-06-08T19:37:45.264Z,22.00
2018-06-08T19:40:12.836Z,21.90
2018-06-08T19:42:40.359Z,21.90
2018-06-08T19:45:07.905Z,21.80
2018-06-08T19:47:35.540Z,21.80
2018-06-08T19:50:03.118Z,21.70
2018-06-08T19:52:30.638Z,21.70
2018-06-08T19:54:58.171Z,21.70
2018-06-08T19:57:25.664Z,21.60
2018-06-08T19:59:53.328Z,21.50
2018-06-08T20:02:20.826Z,21.50
2018-06-08T20:04:48.380Z,21.50
2018-06-08T20:07:16.729Z,21.50
2018-06-08T20:09:44.370Z,21.40
2018-06-08T20:12:11.903Z,21.40
2018-06-08T20:14:39.470Z,21.50
2018-06-08T20:17:07.064Z,21.40
2018-06-08T20:19:34.637Z,21.40
2018-06-08T20:22:02.243Z,21.40
2018-06-08T20:24:29.760Z,21.40
2018-06-08T20:26:57.260Z,21.40
2018-06-08T20:29:24.829Z,21.30
2018-06-08T20:31:52.371Z,21.40
2018-06-08T20:34:19.853Z,21.30
2018-06-08T20:36:47.397Z,21.20
2018-06-08T20:39:14.902Z,21.30
2018-06-08T20:41:42.426Z,21.20
2018-06-08T20:44:10.624Z,21.30
2018-06-08T20:46:38.159Z,21.20
2018-06-08T20:49:05.672Z,21.10
2018-06-08T20:51:33.190Z,21.10
2018-06-08T20:54:00.697Z,21.10
2018-06-08T20:56:28.261Z,21.10
2018-06-08T20:58:55.833Z,21.10
2018-06-08T21:01:23.438Z,21.10
2018-06-08T21:03:50.959Z,21.00
2018-06-08T21:06:18.509Z,21.00
2018-06-08T21:08:46.047Z,21.00
2018-06-08T21:11:13.574Z,21.00
2018-06-08T21:13:41.083Z,20.90
2018-06-08T21:16:08.632Z,20.80
2018-06-08T21:18:36.206Z,20.80
2018-06-08T21:21:03.830Z,20.80
2018-06-08T21:23:31.494Z,20.70
2018-06-08T21:25:59.033Z,20.70
2018-06-08T21:28:26.546Z,20.70
2018-06-08T21:30:54.238Z,20.70
2018-06-08T21:33:21.893Z,20.70
2018-06-08T21:35:49.400Z,20.70
2018-06-08T21:38:16.944Z,20.70
2018-06-08T21:40:44.509Z,20.70
2018-06-08T21:43:12.029Z,20.60
2018-06-08T21:45:39.583Z,20.60
2018-06-08T21:48:07.254Z,20.50
2018-06-08T21:50:34.886Z,20.60
2018-06-08T21:53:02.544Z,20.60
2018-06-08T21:55:30.099Z,20.50
2018-06-08T21:57:57.693Z,20.50
2018-06-08T22:00:25.245Z,20.50
2018-06-08T22:02:52.815Z,20.50
2018-06-08T22:05:20.393Z,20.50
2018-06-08T22:07:47.956Z,20.50
2018-06-08T22:10:15.457Z,20.50
2018-06-08T22:12:42.965Z,20.40
2018-06-08T22:15:10.508Z,20.40
2018-06-08T22:17:38.057Z,20.40
2018-06-08T22:20:05.584Z,20.30
2018-06-08T22:22:33.109Z,20.30
2018-06-08T22:25:00.649Z,20.30
2018-06-08T22:27:28.297Z,20.30
2018-06-08T22:29:55.813Z,20.30
2018-06-08T22:32:23.341Z,20.30
2018-06-08T22:34:50.877Z,20.40
2018-06-08T22:37:18.514Z,20.40
2018-06-08T22:39:46.106Z,20.40
2018-06-08T22:42:13.629Z,20.50
2018-06-08T22:44:41.165Z,20.50
2018-06-08T22:47:08.686Z,20.40
2018-06-08T22:49:36.228Z,20.50
2018-06-08T22:52:04.060Z,20.50
2018-06-08T22:54:31.595Z,20.50
2018-06-08T22:56:59.210Z,20.50
2018-06-08T22:59:26.732Z,20.50
2018-06-08T23:01:54.251Z,20.50
2018-06-08T23:04:21.849Z,20.50
2018-06-08T23:06:49.349Z,20.60
2018-06-08T23:09:16.891Z,20.50
2018-06-08T23:11:44.423Z,20.60
2018-06-08T23:14:11.950Z,20.60
2018-06-08T23:16:39.485Z,20.60
2018-06-08T23:19:06.985Z,20.60
2018-06-08T23:21:34.522Z,20.50
2018-06-08T23:24:02.082Z,20.50
2018-06-08T23:26:29.597Z,20.40
2018-06-08T23:28:57.127Z,20.40
2018-06-08T23:31:24.631Z,20.50
2018-06-08T23:33:52.146Z,20.50
2018-06-08T23:36:20.444Z,20.40
2018-06-08T23:38:48.158Z,20.40
2018-06-08T23:41:15.689Z,20.40
2018-06-08T23:43:43.183Z,20.40
2018-06-08T23:46:10.704Z,20.40
2018-06-08T23:48:38.213Z,20.30
2018-06-08T23:51:06.421Z,20.30
2018-06-08T23:53:35.129Z,20.30
2018-06-08T23:56:02.649Z,20.20
2018-06-08T23:58:30.162Z,20.20
